Time,TemperatureF,DewpointF,PressureIn,WindDirection,WindDirectionDegrees,WindSpeedMPH,WindSpeedGustMPH,Humidity,HourlyPrecipIn,Conditions,Clouds,dailyrainin,SoftwareType,DateUTC
2013-05-26 00:00:00,45.5,34.0,30.36,WSW,252,0.0,18.2,64,0.00,,,0.00,VWS V14.01,2013-05-26 04:00:00,
2013-05-26 00:01:00,45.4,34.3,30.36,West,280,2.8,2.8,65,0.00,,,0.00,VWS V14.01,2013-05-26 04:01:00,
2013-05-26 00:06:00,45.3,34.6,30.36,WNW,298,1.4,7.0,66,0.00,,,0.00,VWS V14.01,2013-05-26 04:06:00,
2013-05-26 00:11:00,45.1,34.4,30.36,NNW,345,1.4,7.0,66,0.00,,,0.00,VWS V14.01,2013-05-26 04:11:00,
2013-05-26 00:16:00,44.9,34.2,30.36,WNW,301,1.4,7.0,66,0.00,,,0.00,VWS V14.01,2013-05-26 04:16:00,
2013-05-26 00:21:00,44.8,34.5,30.36,NNW,347,7.0,8.4,67,0.00,,,0.00,VWS V14.01,2013-05-26 04:21:00,
2013-05-26 00:26:00,44.9,34.2,30.36,NW,321,2.8,8.4,66,0.00,,,0.00,VWS V14.01,2013-05-26 04:26:00,
2013-05-26 00:31:00,44.7,34.4,30.36,NW,324,1.4,8.4,67,0.00,,,0.00,VWS V14.01,2013-05-26 04:31:00,
2013-05-26 00:36:00,44.4,34.5,30.36,NNW,338,0.0,8.4,68,0.00,,,0.00,VWS V14.01,2013-05-26 04:36:00,
2013-05-26 00:41:00,44.3,34.0,30.36,WNW,297,2.8,8.4,67,0.00,,,0.00,VWS V14.01,2013-05-26 04:41:00,
2013-05-26 00:46:00,44.1,34.2,30.36,NNW,330,1.4,8.4,68,0.00,,,0.00,VWS V14.01,2013-05-26 04:46:00,
2013-05-26 00:51:00,44.0,34.1,30.36,North,353,2.8,8.4,68,0.00,,,0.00,VWS V14.01,2013-05-26 04:51:00,
2013-05-26 00:56:00,44.0,34.1,30.36,NW,307,0.0,8.4,68,0.00,,,0.00,VWS V14.01,2013-05-26 04:56:00,
2013-05-26 01:00:00,43.9,34.0,30.36,North,6,0.0,8.4,68,0.00,,,0.00,VWS V14.01,2013-05-26 05:00:00,
2013-05-26 01:05:00,43.7,34.6,30.36,NW,321,0.0,8.4,70,0.00,,,0.00,VWS V14.01,2013-05-26 05:05:00,
2013-05-26 01:10:00,43.0,34.6,30.36,NW,321,0.0,8.4,72,0.00,,,0.00,VWS V14.01,2013-05-26 05:10:00,
2013-05-26 01:15:00,42.2,33.8,30.36,NW,324,1.4,8.4,72,0.00,,,0.00,VWS V14.01,2013-05-26 05:15:00,
2013-05-26 01:20:00,42.1,33.7,30.36,NNW,331,0.0,8.4,72,0.00,,,0.00,VWS V14.01,2013-05-26 05:20:00,
2013-05-26 01:25:00,42.1,33.7,30.36,NW,321,0.0,8.4,72,0.00,,,0.00,VWS V14.01,2013-05-26 05:25:00,
2013-05-26 01:30:00,42.0,34.0,30.36,NW,314,1.4,8.4,73,0.00,,,0.00,VWS V14.01,2013-05-26 05:30:00,
2013-05-26 01:35:00,41.8,33.8,30.36,NW,314,2.8,8.4,73,0.00,,,0.00,VWS V14.01,2013-05-26 05:35:00,
2013-05-26 01:40:00,41.6,33.9,30.35,WNW,295,4.2,8.4,74,0.00,,,0.00,VWS V14.01,2013-05-26 05:40:00,
2013-05-26 01:45:00,41.3,34.0,30.35,NW,312,1.4,8.4,75,0.00,,,0.00,VWS V14.01,2013-05-26 05:45:00,
2013-05-26 01:50:00,41.4,34.1,30.36,NNW,333,1.4,8.4,75,0.00,,,0.00,VWS V14.01,2013-05-26 05:50:00,
2013-05-26 01:55:00,41.6,33.9,30.36,NW,321,2.8,8.4,74,0.00,,,0.00,VWS V14.01,2013-05-26 05:55:00,
2013-05-26 02:00:00,41.6,34.3,30.36,WNW,283,1.4,2.8,75,0.00,,,0.00,VWS V14.01,2013-05-26 06:00:00,
2013-05-26 02:05:00,41.7,34.0,30.36,NW,309,0.0,5.6,74,0.00,,,0.00,VWS V14.01,2013-05-26 06:05:00,
2013-05-26 02:10:00,41.7,34.0,30.36,NW,311,0.0,5.6,74,0.00,,,0.00,VWS V14.01,2013-05-26 06:10:00,
2013-05-26 02:15:00,41.7,34.0,30.36,NNW,330,1.4,5.6,74,0.00,,,0.00,VWS V14.01,2013-05-26 06:15:00,
2013-05-26 02:20:00,41.8,34.1,30.36,NNW,338,2.8,7.0,74,0.00,,,0.00,VWS V14.01,2013-05-26 06:20:00,
2013-05-26 02:25:00,41.8,34.1,30.36,NW,316,0.0,7.0,74,0.00,,,0.00,VWS V14.01,2013-05-26 06:25:00,
2013-05-26 02:30:00,41.6,34.3,30.37,NW,314,0.0,7.0,75,0.00,,,0.00,VWS V14.01,2013-05-26 06:30:00,
2013-05-26 02:35:00,41.5,34.2,30.36,NNW,331,0.0,7.0,75,0.00,,,0.00,VWS V14.01,2013-05-26 06:35:00,
2013-05-26 02:40:00,41.3,34.0,30.37,NW,306,0.0,7.0,75,0.00,,,0.00,VWS V14.01,2013-05-26 06:40:00,
2013-05-26 02:45:00,41.2,34.2,30.37,West,278,0.0,7.0,76,0.00,,,0.00,VWS V14.01,2013-05-26 06:45:00,
2013-05-26 02:50:00,40.9,34.3,30.37,NW,304,1.4,7.0,77,0.00,,,0.00,VWS V14.01,2013-05-26 06:50:00,
2013-05-26 02:55:00,40.4,34.1,30.37,NW,305,0.0,7.0,78,0.00,,,0.00,VWS V14.01,2013-05-26 06:55:00,
2013-05-26 03:00:00,40.0,34.0,30.36,NW,305,0.0,7.0,79,0.00,,,0.00,VWS V14.01,2013-05-26 07:00:00,
2013-05-26 03:05:00,39.8,34.1,30.36,NW,304,0.0,7.0,80,0.00,,,0.00,VWS V14.01,2013-05-26 07:05:00,
2013-05-26 03:10:00,39.4,33.8,30.36,NW,305,0.0,7.0,80,0.00,,,0.00,VWS V14.01,2013-05-26 07:10:00,
2013-05-26 03:15:00,39.4,34.1,30.37,NW,305,0.0,7.0,81,0.00,,,0.00,VWS V14.01,2013-05-26 07:15:00,
2013-05-26 03:20:00,39.2,34.5,30.36,NW,305,0.0,7.0,83,0.00,,,0.00,VWS V14.01,2013-05-26 07:20:00,
2013-05-26 03:25:00,38.7,34.6,30.37,NW,305,0.0,7.0,85,0.00,,,0.00,VWS V14.01,2013-05-26 07:25:00,
2013-05-26 03:30:00,38.4,34.0,30.36,NW,305,0.0,7.0,84,0.00,,,0.00,VWS V14.01,2013-05-26 07:30:00,
2013-05-26 03:35:00,38.1,34.0,30.36,NW,305,0.0,7.0,85,0.00,,,0.00,VWS V14.01,2013-05-26 07:35:00,
2013-05-26 03:40:00,37.8,34.0,30.36,NW,305,0.0,7.0,86,0.00,,,0.00,VWS V14.01,2013-05-26 07:40:00,
2013-05-26 03:45:00,37.8,33.7,30.36,SSW,211,0.0,7.0,85,0.00,,,0.00,VWS V14.01,2013-05-26 07:45:00,
2013-05-26 03:50:00,37.3,33.5,30.36,SSW,212,0.0,7.0,86,0.00,,,0.00,VWS V14.01,2013-05-26 07:50:00,
2013-05-26 03:55:00,36.7,33.2,30.36,SW,217,0.0,7.0,87,0.00,,,0.00,VWS V14.01,2013-05-26 07:55:00,
2013-05-26 04:00:00,36.7,33.2,30.36,SW,217,0.0,0.0,87,0.00,,,0.00,VWS V14.01,2013-05-26 08:00:00,
2013-05-26 04:05:00,36.5,33.0,30.36,SSW,203,0.0,0.0,87,0.00,,,0.00,VWS V14.01,2013-05-26 08:05:00,
2013-05-26 04:10:00,36.5,33.8,30.36,SSW,201,0.0,0.0,90,0.00,,,0.00,VWS V14.01,2013-05-26 08:10:00,
2013-05-26 04:15:00,36.2,33.8,30.36,SSW,201,0.0,0.0,91,0.00,,,0.00,VWS V14.01,2013-05-26 08:15:00,
2013-05-26 04:20:00,36.5,34.4,30.36,SSW,201,0.0,0.0,92,0.00,,,0.00,VWS V14.01,2013-05-26 08:20:00,
2013-05-26 04:25:00,36.3,33.9,30.36,SSW,201,1.4,1.4,91,0.00,,,0.00,VWS V14.01,2013-05-26 08:25:00,
2013-05-26 04:30:00,36.1,33.7,30.36,SW,219,0.0,1.4,91,0.00,,,0.00,VWS V14.01,2013-05-26 08:30:00,
2013-05-26 04:35:00,35.7,33.3,30.36,SSE,163,1.4,1.4,91,0.00,,,0.00,VWS V14.01,2013-05-26 08:35:00,
2013-05-26 04:40:00,35.6,33.5,30.36,SSW,212,1.4,1.4,92,0.00,,,0.00,VWS V14.01,2013-05-26 08:40:00,
2013-05-26 04:45:00,35.3,32.9,30.36,SW,226,0.0,1.4,91,0.00,,,0.00,VWS V14.01,2013-05-26 08:45:00,
2013-05-26 04:50:00,35.0,32.4,30.36,SSW,200,1.4,1.4,90,0.00,,,0.00,VWS V14.01,2013-05-26 08:50:00,
2013-05-26 04:55:00,34.8,32.2,30.36,SW,236,0.0,1.4,90,0.00,,,0.00,VWS V14.01,2013-05-26 08:55:00,
2013-05-26 05:00:00,34.6,32.0,30.36,SW,236,0.0,1.4,90,0.00,,,0.00,VWS V14.01,2013-05-26 09:00:00,
2013-05-26 05:05:00,34.7,32.3,30.37,SW,226,0.0,1.4,91,0.00,,,0.00,VWS V14.01,2013-05-26 09:05:00,
2013-05-26 05:10:00,35.0,32.9,30.37,SW,222,1.4,1.4,92,0.00,,,0.00,VWS V14.01,2013-05-26 09:10:00,
2013-05-26 05:15:00,35.2,33.1,30.37,SW,222,0.0,1.4,92,0.00,,,0.00,VWS V14.01,2013-05-26 09:15:00,
2013-05-26 05:20:00,35.0,32.9,30.37,SW,222,0.0,1.4,92,0.00,,,0.00,VWS V14.01,2013-05-26 09:20:00,
2013-05-26 05:22:00,34.9,32.8,30.37,SW,222,0.0,1.4,92,0.00,,,0.00,VWS V14.01,2013-05-26 09:22:00,
2013-05-26 05:26:00,34.8,32.7,30.37,SW,222,0.0,1.4,92,0.00,,,0.00,VWS V14.01,2013-05-26 09:26:00,
2013-05-26 05:31:00,34.6,32.5,30.37,SW,222,0.0,1.4,92,0.00,,,0.00,VWS V14.01,2013-05-26 09:31:00,
2013-05-26 05:36:00,34.4,32.3,30.37,SW,222,0.0,1.4,92,0.00,,,0.00,VWS V14.01,2013-05-26 09:36:00,
2013-05-26 05:38:00,34.3,32.2,30.37,SW,222,1.4,1.4,92,0.00,,,0.00,VWS V14.01,2013-05-26 09:38:00,
2013-05-26 05:43:00,34.3,32.5,30.37,SW,222,0.0,1.4,93,0.00,,,0.00,VWS V14.01,2013-05-26 09:43:00,
2013-05-26 05:48:00,34.3,32.5,30.37,SW,222,0.0,1.4,93,0.00,,,0.00,VWS V14.01,2013-05-26 09:48:00,
2013-05-26 05:53:00,34.2,32.4,30.38,SW,222,0.0,1.4,93,0.00,,,0.00,VWS V14.01,2013-05-26 09:53:00,
2013-05-26 05:58:00,34.2,32.4,30.38,SW,222,0.0,1.4,93,0.00,,,0.00,VWS V14.01,2013-05-26 09:58:00,
2013-05-26 06:00:00,34.2,32.4,30.38,SW,222,0.0,1.4,93,0.00,,,0.00,VWS V14.01,2013-05-26 10:00:00,
2013-05-26 06:03:00,34.4,32.9,30.38,SW,222,0.0,0.0,94,0.00,,,0.00,VWS V14.01,2013-05-26 10:03:00,
2013-05-26 06:08:00,34.3,32.8,30.39,SW,222,0.0,0.0,94,0.00,,,0.00,VWS V14.01,2013-05-26 10:08:00,
2013-05-26 06:13:00,35.1,33.5,30.39,SW,222,0.0,1.4,94,0.00,,,0.00,VWS V14.01,2013-05-26 10:13:00,
2013-05-26 06:18:00,35.8,34.2,30.39,SW,222,0.0,1.4,94,0.00,,,0.00,VWS V14.01,2013-05-26 10:18:00,
2013-05-26 06:23:00,36.6,34.8,30.39,SW,222,0.0,1.4,93,0.00,,,0.00,VWS V14.01,2013-05-26 10:23:00,
2013-05-26 06:28:00,37.1,35.0,30.39,SW,222,0.0,1.4,92,0.00,,,0.00,VWS V14.01,2013-05-26 10:28:00,
2013-05-26 06:33:00,38.1,36.0,30.39,SW,222,0.0,1.4,92,0.00,,,0.00,VWS V14.01,2013-05-26 10:33:00,
2013-05-26 06:38:00,38.8,35.8,30.40,SW,222,0.0,1.4,89,0.00,,,0.00,VWS V14.01,2013-05-26 10:38:00,
2013-05-26 06:43:00,39.7,36.2,30.40,SW,222,0.0,1.4,87,0.00,,,0.00,VWS V14.01,2013-05-26 10:43:00,
2013-05-26 06:48:00,40.1,36.0,30.41,SW,222,0.0,1.4,85,0.00,,,0.00,VWS V14.01,2013-05-26 10:48:00,
2013-05-26 06:53:00,41.5,37.3,30.41,SW,222,0.0,1.4,85,0.00,,,0.00,VWS V14.01,2013-05-26 10:53:00,
2013-05-26 06:58:00,42.0,37.2,30.41,SW,222,0.0,1.4,83,0.00,,,0.00,VWS V14.01,2013-05-26 10:58:00,
2013-05-26 07:00:00,34.2,32.4,30.38,SW,222,0.0,1.4,93,0.00,,,0.00,VWS V14.01,2013-05-26 11:00:00,
2013-05-26 07:03:00,42.8,37.1,30.41,SW,222,0.0,1.4,80,0.00,,,0.00,VWS V14.01,2013-05-26 11:03:00,
2013-05-26 07:08:00,43.3,37.6,30.41,SW,222,0.0,1.4,80,0.00,,,0.00,VWS V14.01,2013-05-26 11:08:00,
2013-05-26 07:13:00,44.9,38.8,30.41,SW,223,0.0,1.4,79,0.00,,,0.00,VWS V14.01,2013-05-26 11:13:00,
2013-05-26 07:18:00,46.6,39.5,30.41,SW,223,0.0,1.4,76,0.00,,,0.00,VWS V14.01,2013-05-26 11:18:00,
2013-05-26 07:23:00,47.9,41.4,30.40,SW,222,0.0,1.4,78,0.00,,,0.00,VWS V14.01,2013-05-26 11:23:00,
2013-05-26 07:28:00,49.3,42.4,30.41,SW,222,0.0,1.4,77,0.00,,,0.00,VWS V14.01,2013-05-26 11:28:00,
2013-05-26 07:33:00,50.3,41.6,30.41,SW,222,0.0,1.4,72,0.00,,,0.00,VWS V14.01,2013-05-26 11:33:00,
2013-05-26 07:38:00,49.4,40.8,30.40,SW,222,0.0,1.4,72,0.00,,,0.00,VWS V14.01,2013-05-26 11:38:00,
2013-05-26 07:43:00,49.5,39.4,30.40,ESE,104,0.0,1.4,68,0.00,,,0.00,VWS V14.01,2013-05-26 11:43:00,
2013-05-26 07:48:00,49.2,39.5,30.40,NNE,12,0.0,1.4,69,0.00,,,0.00,VWS V14.01,2013-05-26 11:48:00,
2013-05-26 07:53:00,49.4,40.0,30.40,North,11,0.0,1.4,70,0.00,,,0.00,VWS V14.01,2013-05-26 11:53:00,
2013-05-26 07:58:00,51.3,41.1,30.39,NNE,12,0.0,1.4,68,0.00,,,0.00,VWS V14.01,2013-05-26 11:58:00,
2013-05-26 08:00:00,51.8,41.2,30.39,ESE,109,0.0,1.4,67,0.00,,,0.00,VWS V14.01,2013-05-26 12:00:00,
2013-05-26 08:03:00,52.1,40.7,30.39,ESE,110,0.0,1.4,65,0.00,,,0.00,VWS V14.01,2013-05-26 12:03:00,
2013-05-26 08:08:00,51.3,41.9,30.39,ESE,104,0.0,1.4,70,0.00,,,0.00,VWS V14.01,2013-05-26 12:08:00,
2013-05-26 08:13:00,51.2,42.1,30.39,ESE,104,0.0,1.4,71,0.00,,,0.00,VWS V14.01,2013-05-26 12:13:00,
2013-05-26 08:18:00,52.1,42.6,30.39,ESE,104,0.0,1.4,70,0.00,,,0.00,VWS V14.01,2013-05-26 12:18:00,
2013-05-26 08:23:00,52.4,42.5,30.39,East,97,2.8,2.8,69,0.00,,,0.00,VWS V14.01,2013-05-26 12:23:00,
2013-05-26 08:28:00,51.1,42.0,30.39,East,91,1.4,2.8,71,0.00,,,0.00,VWS V14.01,2013-05-26 12:28:00,
2013-05-26 08:33:00,50.0,41.7,30.39,East,94,1.4,2.8,73,0.00,,,0.00,VWS V14.01,2013-05-26 12:33:00,
2013-05-26 08:38:00,50.1,41.1,30.40,East,92,0.0,2.8,71,0.00,,,0.00,VWS V14.01,2013-05-26 12:38:00,
2013-05-26 08:43:00,50.6,42.6,30.40,East,94,2.8,2.8,74,0.00,,,0.00,VWS V14.01,2013-05-26 12:43:00,
2013-05-26 08:48:00,50.3,42.0,30.40,East,89,0.0,2.8,73,0.00,,,0.00,VWS V14.01,2013-05-26 12:48:00,
2013-05-26 08:53:00,50.9,40.7,30.40,East,89,0.0,2.8,68,0.00,,,0.00,VWS V14.01,2013-05-26 12:53:00,
2013-05-26 08:58:00,53.8,39.8,30.40,SE,139,0.0,2.8,59,0.00,,,0.00,VWS V14.01,2013-05-26 12:58:00,
2013-05-26 09:00:00,51.8,41.2,30.39,ESE,109,0.0,1.4,67,0.00,,,0.00,VWS V14.01,2013-05-26 13:00:00,
2013-05-26 09:03:00,55.6,36.2,30.40,SSE,152,1.4,2.8,48,0.00,,,0.00,VWS V14.01,2013-05-26 13:03:00,
2013-05-26 09:08:00,56.2,37.8,30.40,East,92,4.2,4.2,50,0.00,,,0.00,VWS V14.01,2013-05-26 13:08:00,
2013-05-26 09:13:00,54.6,38.8,30.41,East,99,1.4,4.2,55,0.00,,,0.00,VWS V14.01,2013-05-26 13:13:00,
2013-05-26 09:18:00,52.7,38.3,30.41,ESE,110,2.8,5.6,58,0.00,,,0.00,VWS V14.01,2013-05-26 13:18:00,
2013-05-26 09:23:00,51.2,42.1,30.41,East,96,4.2,5.6,71,0.00,,,0.00,VWS V14.01,2013-05-26 13:23:00,
2013-05-26 09:28:00,50.3,42.0,30.41,East,82,2.8,5.6,73,0.00,,,0.00,VWS V14.01,2013-05-26 13:28:00,
2013-05-26 09:33:00,49.9,41.6,30.41,ENE,78,2.8,5.6,73,0.00,,,0.00,VWS V14.01,2013-05-26 13:33:00,
2013-05-26 09:38:00,50.6,42.3,30.41,NE,54,1.4,5.6,73,0.00,,,0.00,VWS V14.01,2013-05-26 13:38:00,
2013-05-26 09:43:00,51.2,41.8,30.42,NE,41,1.4,5.6,70,0.00,,,0.00,VWS V14.01,2013-05-26 13:43:00,
2013-05-26 09:48:00,51.5,42.0,30.41,NE,46,1.4,5.6,70,0.00,,,0.00,VWS V14.01,2013-05-26 13:48:00,
2013-05-26 09:53:00,51.3,42.2,30.41,NNE,23,4.2,5.6,71,0.00,,,0.00,VWS V14.01,2013-05-26 13:53:00,
2013-05-26 09:58:00,50.2,40.4,30.41,NNE,20,4.2,7.0,69,0.00,,,0.00,VWS V14.01,2013-05-26 13:58:00,
2013-05-26 10:00:00,49.9,39.8,30.41,NNE,27,5.6,7.0,68,0.00,,,0.00,VWS V14.01,2013-05-26 14:00:00,
2013-05-26 10:03:00,49.7,40.7,30.41,NNE,23,7.0,7.0,71,0.00,,,0.00,VWS V14.01,2013-05-26 14:03:00,
2013-05-26 10:08:00,49.1,40.5,30.41,NE,36,5.6,7.0,72,0.00,,,0.00,VWS V14.01,2013-05-26 14:08:00,
2013-05-26 10:13:00,49.0,41.4,30.41,North,353,5.6,8.4,75,0.00,,,0.00,VWS V14.01,2013-05-26 14:13:00,
2013-05-26 10:18:00,48.6,40.7,30.40,NNE,20,8.4,9.8,74,0.00,,,0.00,VWS V14.01,2013-05-26 14:18:00,
2013-05-26 10:23:00,48.3,41.8,30.40,NE,34,7.0,9.8,78,0.00,,,0.00,VWS V14.01,2013-05-26 14:23:00,
2013-05-26 10:28:00,47.7,41.2,30.40,North,351,11.2,11.2,78,0.00,,,0.00,VWS V14.01,2013-05-26 14:28:00,
2013-05-26 10:33:00,47.2,40.7,30.40,NNE,26,9.8,14.0,78,0.00,,,0.00,VWS V14.01,2013-05-26 14:33:00,
2013-05-26 10:38:00,47.8,41.0,30.40,NNW,342,9.8,14.0,77,0.00,,,0.00,VWS V14.01,2013-05-26 14:38:00,
2013-05-26 10:43:00,47.8,41.0,30.40,NNE,16,8.4,14.0,77,0.00,,,0.00,VWS V14.01,2013-05-26 14:43:00,
2013-05-26 10:48:00,47.9,41.0,30.40,North,4,8.4,14.0,77,0.00,,,0.00,VWS V14.01,2013-05-26 14:48:00,
2013-05-26 10:53:00,47.9,41.4,30.40,NNE,29,9.8,14.0,78,0.00,,,0.00,VWS V14.01,2013-05-26 14:53:00,
2013-05-26 10:58:00,47.7,41.2,30.40,North,5,8.4,14.0,78,0.00,,,0.00,VWS V14.01,2013-05-26 14:58:00,
2013-05-26 11:00:00,49.9,39.8,30.41,NNE,27,5.6,7.0,68,0.00,,,0.00,VWS V14.01,2013-05-26 15:00:00,
2013-05-26 11:03:00,47.9,41.0,30.40,North,353,9.8,14.0,77,0.00,,,0.00,VWS V14.01,2013-05-26 15:03:00,
2013-05-26 11:08:00,47.9,41.0,30.40,NNE,27,12.6,15.4,77,0.00,,,0.00,VWS V14.01,2013-05-26 15:08:00,
2013-05-26 11:13:00,47.7,40.8,30.40,NNE,13,8.4,15.4,77,0.00,,,0.00,VWS V14.01,2013-05-26 15:13:00,
2013-05-26 11:18:00,47.8,41.3,30.39,NNW,330,9.8,15.4,78,0.00,,,0.00,VWS V14.01,2013-05-26 15:18:00,
2013-05-26 11:23:00,47.9,41.0,30.39,NNE,25,5.6,15.4,77,0.00,,,0.00,VWS V14.01,2013-05-26 15:23:00,
2013-05-26 11:28:00,48.0,41.2,30.39,NNW,345,11.2,15.4,77,0.00,,,0.00,VWS V14.01,2013-05-26 15:28:00,
2013-05-26 11:33:00,48.0,39.8,30.39,North,350,5.6,15.4,73,0.00,,,0.00,VWS V14.01,2013-05-26 15:33:00,
2013-05-26 11:38:00,48.7,40.1,30.39,NNW,342,5.6,15.4,72,0.00,,,0.00,VWS V14.01,2013-05-26 15:38:00,
2013-05-26 11:43:00,49.4,40.0,30.39,NNE,26,11.2,15.4,70,0.00,,,0.00,VWS V14.01,2013-05-26 15:43:00,
2013-05-26 11:48:00,49.8,40.0,30.39,NW,305,5.6,15.4,69,0.00,,,0.00,VWS V14.01,2013-05-26 15:48:00,
2013-05-26 11:53:00,49.9,39.4,30.39,NNE,25,8.4,15.4,67,0.00,,,0.00,VWS V14.01,2013-05-26 15:53:00,
2013-05-26 11:58:00,49.9,39.0,30.39,NNE,25,7.0,15.4,66,0.00,,,0.00,VWS V14.01,2013-05-26 15:58:00,
2013-05-26 12:00:00,50.1,39.2,30.39,North,1,7.0,15.4,66,0.00,,,0.00,VWS V14.01,2013-05-26 16:00:00,
2013-05-26 12:03:00,50.9,38.8,30.39,North,6,8.4,12.6,63,0.00,,,0.00,VWS V14.01,2013-05-26 16:03:00,
2013-05-26 12:08:00,51.9,38.5,30.39,North,353,8.4,14.0,60,0.00,,,0.00,VWS V14.01,2013-05-26 16:08:00,
2013-05-26 12:13:00,52.8,38.0,30.39,North,8,9.8,16.8,57,0.00,,,0.00,VWS V14.01,2013-05-26 16:13:00,
2013-05-26 12:18:00,53.0,37.7,30.39,NNE,26,11.2,16.8,56,0.00,,,0.00,VWS V14.01,2013-05-26 16:18:00,
2013-05-26 12:23:00,53.7,37.5,30.39,NNW,328,8.4,16.8,54,0.00,,,0.00,VWS V14.01,2013-05-26 16:23:00,
2013-05-26 12:28:00,54.0,37.3,30.39,North,352,7.0,16.8,53,0.00,,,0.00,VWS V14.01,2013-05-26 16:28:00,
2013-05-26 12:33:00,54.8,38.0,30.38,NNW,332,5.6,16.8,53,0.00,,,0.00,VWS V14.01,2013-05-26 16:33:00,
2013-05-26 12:38:00,55.2,37.9,30.38,NNW,327,5.6,16.8,52,0.00,,,0.00,VWS V14.01,2013-05-26 16:38:00,
2013-05-26 12:43:00,55.7,37.4,30.38,North,9,4.2,16.8,50,0.00,,,0.00,VWS V14.01,2013-05-26 16:43:00,
2013-05-26 12:47:00,55.8,35.3,30.38,North,357,9.8,16.8,46,0.00,,,0.00,VWS V14.01,2013-05-26 16:47:00,
2013-05-26 12:52:00,55.4,37.1,30.38,North,351,9.8,16.8,50,0.00,,,0.00,VWS V14.01,2013-05-26 16:52:00,
2013-05-26 12:57:00,55.8,35.9,30.37,North,349,7.0,16.8,47,0.00,,,0.00,VWS V14.01,2013-05-26 16:57:00,
2013-05-26 13:00:00,50.1,39.2,30.39,North,1,7.0,15.4,66,0.00,,,0.00,VWS V14.01,2013-05-26 17:00:00,
2013-05-26 13:02:00,55.9,34.3,30.37,NNW,341,7.0,16.8,44,0.00,,,0.00,VWS V14.01,2013-05-26 17:02:00,
2013-05-26 13:07:00,56.8,35.1,30.37,North,9,5.6,16.8,44,0.00,,,0.00,VWS V14.01,2013-05-26 17:07:00,
2013-05-26 13:12:00,58.2,34.0,30.37,North,355,5.6,16.8,40,0.00,,,0.00,VWS V14.01,2013-05-26 17:12:00,
2013-05-26 13:17:00,59.6,33.3,30.37,North,353,8.4,16.8,37,0.00,,,0.00,VWS V14.01,2013-05-26 17:17:00,
2013-05-26 13:22:00,60.3,31.8,30.37,NNW,338,11.2,16.8,34,0.00,,,0.00,VWS V14.01,2013-05-26 17:22:00,
2013-05-26 13:27:00,60.3,33.3,30.37,North,358,7.0,16.8,36,0.00,,,0.00,VWS V14.01,2013-05-26 17:27:00,
2013-05-26 13:32:00,60.8,34.4,30.37,NNE,13,8.4,16.8,37,0.00,,,0.00,VWS V14.01,2013-05-26 17:32:00,
2013-05-26 13:37:00,61.1,35.3,30.37,North,354,9.8,16.8,38,0.00,,,0.00,VWS V14.01,2013-05-26 17:37:00,
2013-05-26 13:42:00,61.1,34.7,30.37,North,350,9.8,16.8,37,0.00,,,0.00,VWS V14.01,2013-05-26 17:42:00,
2013-05-26 13:47:00,60.9,33.1,30.37,North,358,11.2,16.8,35,0.00,,,0.00,VWS V14.01,2013-05-26 17:47:00,
2013-05-26 13:52:00,62.2,34.2,30.37,NNE,30,15.4,18.2,35,0.00,,,0.00,VWS V14.01,2013-05-26 17:52:00,
2013-05-26 13:57:00,62.6,32.3,30.36,NNW,340,11.2,19.6,32,0.00,,,0.00,VWS V14.01,2013-05-26 17:57:00,
2013-05-26 14:00:00,62.9,33.4,30.37,NNE,15,12.6,19.6,33,0.00,,,0.00,VWS V14.01,2013-05-26 18:00:00,
2013-05-26 14:02:00,63.2,32.1,30.36,ENE,63,12.6,19.6,31,0.00,,,0.00,VWS V14.01,2013-05-26 18:02:00,
2013-05-26 14:07:00,63.3,33.7,30.36,NNW,337,11.2,19.6,33,0.00,,,0.00,VWS V14.01,2013-05-26 18:07:00,
2013-05-26 14:12:00,63.5,31.5,30.36,NE,44,15.4,19.6,30,0.00,,,0.00,VWS V14.01,2013-05-26 18:12:00,
2013-05-26 14:17:00,63.0,32.7,30.36,NNW,340,9.8,22.4,32,0.00,,,0.00,VWS V14.01,2013-05-26 18:17:00,
2013-05-26 14:22:00,62.8,33.3,30.35,NNE,16,11.2,22.4,33,0.00,,,0.00,VWS V14.01,2013-05-26 18:22:00,
2013-05-26 14:27:00,62.9,34.8,30.35,NNW,337,9.8,22.4,35,0.00,,,0.00,VWS V14.01,2013-05-26 18:27:00,
2013-05-26 14:32:00,62.8,36.2,30.35,NW,311,5.6,22.4,37,0.00,,,0.00,VWS V14.01,2013-05-26 18:32:00,
2013-05-26 14:37:00,63.1,35.0,30.35,NNE,22,7.0,22.4,35,0.00,,,0.00,VWS V14.01,2013-05-26 18:37:00,
2013-05-26 14:42:00,60.1,39.3,30.35,North,349,8.4,22.4,46,0.00,,,0.00,VWS V14.01,2013-05-26 18:42:00,
2013-05-26 14:47:00,59.6,37.1,30.35,NNW,333,4.2,22.4,43,0.00,,,0.00,VWS V14.01,2013-05-26 18:47:00,
2013-05-26 14:52:00,60.4,34.7,30.35,North,352,7.0,22.4,38,0.00,,,0.00,VWS V14.01,2013-05-26 18:52:00,
2013-05-26 14:57:00,60.9,33.8,30.35,NNW,340,9.8,22.4,36,0.00,,,0.00,VWS V14.01,2013-05-26 18:57:00,
2013-05-26 15:00:00,62.9,33.4,30.37,NNE,15,12.6,19.6,33,0.00,,,0.00,VWS V14.01,2013-05-26 19:00:00,
2013-05-26 15:02:00,61.9,31.7,30.35,NW,312,11.2,22.4,32,0.00,,,0.00,VWS V14.01,2013-05-26 19:02:00,
2013-05-26 15:07:00,62.2,30.4,30.34,NNE,30,18.2,25.2,30,0.00,,,0.00,VWS V14.01,2013-05-26 19:07:00,
2013-05-26 15:12:00,62.3,30.5,30.34,NE,36,16.8,25.2,30,0.00,,,0.00,VWS V14.01,2013-05-26 19:12:00,
2013-05-26 15:17:00,62.9,31.8,30.34,NNW,336,8.4,25.2,31,0.00,,,0.00,VWS V14.01,2013-05-26 19:17:00,
2013-05-26 15:22:00,63.0,31.9,30.34,NW,315,11.2,25.2,31,0.00,,,0.00,VWS V14.01,2013-05-26 19:22:00,
2013-05-26 15:27:00,62.8,30.9,30.34,WNW,289,9.8,25.2,30,0.00,,,0.00,VWS V14.01,2013-05-26 19:27:00,
2013-05-26 15:32:00,62.9,31.8,30.33,WNW,293,21.0,25.2,31,0.00,,,0.00,VWS V14.01,2013-05-26 19:32:00,
2013-05-26 15:37:00,62.6,30.8,30.33,North,356,18.2,25.2,30,0.00,,,0.00,VWS V14.01,2013-05-26 19:37:00,
2013-05-26 15:42:00,63.0,31.9,30.33,North,5,8.4,25.2,31,0.00,,,0.00,VWS V14.01,2013-05-26 19:42:00,
2013-05-26 15:47:00,63.5,33.1,30.33,NNW,342,18.2,25.2,32,0.00,,,0.00,VWS V14.01,2013-05-26 19:47:00,
2013-05-26 15:52:00,63.2,30.4,30.33,SW,233,14.0,25.2,29,0.00,,,0.00,VWS V14.01,2013-05-26 19:52:00,
2013-05-26 15:57:00,63.5,31.5,30.33,North,352,8.4,25.2,30,0.00,,,0.00,VWS V14.01,2013-05-26 19:57:00,
2013-05-26 16:00:00,63.5,32.3,30.33,South,190,4.2,25.2,31,0.00,,,0.00,VWS V14.01,2013-05-26 20:00:00,
2013-05-26 16:02:00,63.2,32.9,30.32,North,360,14.0,18.2,32,0.00,,,0.00,VWS V14.01,2013-05-26 20:02:00,
2013-05-26 16:07:00,63.1,32.0,30.32,North,357,9.8,18.2,31,0.00,,,0.00,VWS V14.01,2013-05-26 20:07:00,
2013-05-26 16:12:00,63.0,31.9,30.32,NNE,18,14.0,18.2,31,0.00,,,0.00,VWS V14.01,2013-05-26 20:12:00,
2013-05-26 16:17:00,62.4,31.4,30.32,West,274,9.8,18.2,31,0.00,,,0.00,VWS V14.01,2013-05-26 20:17:00,
2013-05-26 16:22:00,62.4,30.6,30.32,WNW,300,15.4,21.0,30,0.00,,,0.00,VWS V14.01,2013-05-26 20:22:00,
2013-05-26 16:27:00,62.0,30.2,30.32,North,357,12.6,22.4,30,0.00,,,0.00,VWS V14.01,2013-05-26 20:27:00,
2013-05-26 16:32:00,62.0,31.0,30.32,North,353,12.6,22.4,31,0.00,,,0.00,VWS V14.01,2013-05-26 20:32:00,
2013-05-26 16:37:00,60.3,35.3,30.32,NNW,347,11.2,22.4,39,0.00,,,0.00,VWS V14.01,2013-05-26 20:37:00,
2013-05-26 16:42:00,60.7,32.2,30.31,NNW,345,14.0,22.4,34,0.00,,,0.00,VWS V14.01,2013-05-26 20:42:00,
2013-05-26 16:47:00,61.1,32.5,30.31,NNW,327,5.6,22.4,34,0.00,,,0.00,VWS V14.01,2013-05-26 20:47:00,
2013-05-26 16:52:00,61.6,31.5,30.31,NW,324,14.0,22.4,32,0.00,,,0.00,VWS V14.01,2013-05-26 20:52:00,
2013-05-26 16:57:00,61.3,31.2,30.31,SW,215,14.0,22.4,32,0.00,,,0.00,VWS V14.01,2013-05-26 20:57:00,
2013-05-26 17:00:00,63.5,32.3,30.33,South,190,4.2,25.2,31,0.00,,,0.00,VWS V14.01,2013-05-26 21:00:00,
2013-05-26 17:02:00,61.2,31.1,30.31,NNW,348,8.4,22.4,32,0.00,,,0.00,VWS V14.01,2013-05-26 21:02:00,
2013-05-26 17:07:00,61.0,31.7,30.31,North,9,12.6,22.4,33,0.00,,,0.00,VWS V14.01,2013-05-26 21:07:00,
2013-05-26 17:12:00,60.7,30.7,30.31,NNE,15,7.0,22.4,32,0.00,,,0.00,VWS V14.01,2013-05-26 21:12:00,
2013-05-26 17:18:00,60.4,31.2,30.31,NW,304,9.8,22.4,33,0.00,,,0.00,VWS V14.01,2013-05-26 21:18:00,
2013-05-26 17:23:00,60.5,30.5,30.31,WNW,297,8.4,22.4,32,0.00,,,0.00,VWS V14.01,2013-05-26 21:23:00,
2013-05-26 17:28:00,60.4,31.9,30.31,NNW,327,8.4,22.4,34,0.00,,,0.00,VWS V14.01,2013-05-26 21:28:00,
2013-05-26 17:33:00,60.7,32.2,30.31,WNW,298,8.4,22.4,34,0.00,,,0.00,VWS V14.01,2013-05-26 21:33:00,
2013-05-26 17:38:00,60.6,32.1,30.31,NW,313,7.0,22.4,34,0.00,,,0.00,VWS V14.01,2013-05-26 21:38:00,
2013-05-26 17:43:00,60.4,31.2,30.31,West,269,11.2,22.4,33,0.00,,,0.00,VWS V14.01,2013-05-26 21:43:00,
2013-05-26 17:48:00,60.4,31.2,30.31,North,1,4.2,22.4,33,0.00,,,0.00,VWS V14.01,2013-05-26 21:48:00,
2013-05-26 17:53:00,60.8,32.3,30.30,WNW,284,5.6,22.4,34,0.00,,,0.00,VWS V14.01,2013-05-26 21:53:00,
2013-05-26 17:58:00,60.9,30.9,30.30,SE,136,4.2,22.4,32,0.00,,,0.00,VWS V14.01,2013-05-26 21:58:00,
2013-05-26 18:00:00,60.9,31.6,30.30,North,357,12.6,22.4,33,0.00,,,0.00,VWS V14.01,2013-05-26 22:00:00,
2013-05-26 18:03:00,60.6,31.4,30.30,NNE,19,11.2,15.4,33,0.00,,,0.00,VWS V14.01,2013-05-26 22:03:00,
2013-05-26 18:08:00,60.6,30.6,30.30,NNW,339,9.8,21.0,32,0.00,,,0.00,VWS V14.01,2013-05-26 22:08:00,
2013-05-26 18:13:00,60.6,31.4,30.30,NNW,344,11.2,21.0,33,0.00,,,0.00,VWS V14.01,2013-05-26 22:13:00,
2013-05-26 18:18:00,60.7,30.7,30.30,North,352,8.4,21.0,32,0.00,,,0.00,VWS V14.01,2013-05-26 22:18:00,
2013-05-26 18:23:00,60.8,31.5,30.30,North,360,5.6,21.0,33,0.00,,,0.00,VWS V14.01,2013-05-26 22:23:00,
2013-05-26 18:29:00,60.6,32.1,30.29,WNW,284,2.8,21.0,34,0.00,,,0.00,VWS V14.01,2013-05-26 22:29:00,
2013-05-26 18:34:00,60.1,33.8,30.29,North,358,5.6,21.0,37,0.00,,,0.00,VWS V14.01,2013-05-26 22:34:00,
2013-05-26 18:39:00,59.5,33.9,30.29,North,358,7.0,21.0,38,0.00,,,0.00,VWS V14.01,2013-05-26 22:39:00,
2013-05-26 18:44:00,59.7,33.4,30.29,NE,41,5.6,21.0,37,0.00,,,0.00,VWS V14.01,2013-05-26 22:44:00,
2013-05-26 18:49:00,60.1,32.4,30.29,NNW,342,5.6,21.0,35,0.00,,,0.00,VWS V14.01,2013-05-26 22:49:00,
2013-05-26 18:54:00,60.5,33.4,30.28,NNW,337,8.4,21.0,36,0.00,,,0.00,VWS V14.01,2013-05-26 22:54:00,
2013-05-26 18:59:00,60.4,33.3,30.28,NW,326,8.4,21.0,36,0.00,,,0.00,VWS V14.01,2013-05-26 22:59:00,
2013-05-26 19:00:00,60.9,31.6,30.30,North,357,12.6,22.4,33,0.00,,,0.00,VWS V14.01,2013-05-26 23:00:00,
2013-05-26 19:04:00,60.1,35.1,30.28,North,354,7.0,21.0,39,0.00,,,0.00,VWS V14.01,2013-05-26 23:04:00,
2013-05-26 19:09:00,58.6,33.7,30.28,North,355,9.8,21.0,39,0.00,,,0.00,VWS V14.01,2013-05-26 23:09:00,
2013-05-26 19:14:00,58.7,31.1,30.28,NW,324,8.4,21.0,35,0.00,,,0.00,VWS V14.01,2013-05-26 23:14:00,
2013-05-26 19:19:00,58.9,32.0,30.28,NNW,340,9.8,21.0,36,0.00,,,0.00,VWS V14.01,2013-05-26 23:19:00,
2013-05-26 19:24:00,58.8,31.9,30.28,West,271,7.0,21.0,36,0.00,,,0.00,VWS V14.01,2013-05-26 23:24:00,
2013-05-26 19:29:00,58.3,32.2,30.28,NNW,343,11.2,21.0,37,0.00,,,0.00,VWS V14.01,2013-05-26 23:29:00,
2013-05-26 19:34:00,57.9,31.8,30.28,NNW,339,14.0,21.0,37,0.00,,,0.00,VWS V14.01,2013-05-26 23:34:00,
2013-05-26 19:39:00,57.4,30.7,30.28,West,260,14.0,21.0,36,0.00,,,0.00,VWS V14.01,2013-05-26 23:39:00,
2013-05-26 19:44:00,57.3,31.3,30.28,North,354,11.2,21.0,37,0.00,,,0.00,VWS V14.01,2013-05-26 23:44:00,
2013-05-26 19:49:00,57.0,31.0,30.28,ESE,110,2.8,21.0,37,0.00,,,0.00,VWS V14.01,2013-05-26 23:49:00,
2013-05-26 19:54:00,56.9,31.6,30.28,WNW,288,8.4,21.0,38,0.00,,,0.00,VWS V14.01,2013-05-26 23:54:00,
2013-05-26 19:59:00,56.5,31.2,30.27,NNE,25,4.2,5.6,38,0.00,,,0.00,VWS V14.01,2013-05-26 23:59:00,
2013-05-26 20:00:00,56.5,31.2,30.27,NNW,330,4.2,21.0,38,0.00,,,0.00,VWS V14.01,2013-05-27 00:00:00,
2013-05-26 20:04:00,56.3,31.7,30.27,NNW,339,5.6,11.2,39,0.00,,,0.00,VWS V14.01,2013-05-27 00:04:00,
2013-05-26 20:09:00,56.1,32.1,30.27,NW,317,5.6,11.2,40,0.00,,,0.00,VWS V14.01,2013-05-27 00:09:00,
2013-05-26 20:14:00,55.8,31.9,30.27,NNW,338,4.2,11.2,40,0.00,,,0.00,VWS V14.01,2013-05-27 00:14:00,
2013-05-26 20:19:00,55.5,31.6,30.27,NNW,335,4.2,11.2,40,0.00,,,0.00,VWS V14.01,2013-05-27 00:19:00,
2013-05-26 20:24:00,55.2,31.3,30.27,NNW,327,4.2,12.6,40,0.00,,,0.00,VWS V14.01,2013-05-27 00:24:00,
2013-05-26 20:29:00,54.9,31.0,30.27,NNW,329,7.0,12.6,40,0.00,,,0.00,VWS V14.01,2013-05-27 00:29:00,
2013-05-26 20:34:00,54.7,30.2,30.27,NNE,33,4.2,12.6,39,0.00,,,0.00,VWS V14.01,2013-05-27 00:34:00,
2013-05-26 20:39:00,54.4,30.6,30.27,NW,307,4.2,14.0,40,0.00,,,0.00,VWS V14.01,2013-05-27 00:39:00,
2013-05-26 20:44:00,54.0,30.9,30.27,NW,325,5.6,14.0,41,0.00,,,0.00,VWS V14.01,2013-05-27 00:44:00,
2013-05-26 20:49:00,53.5,31.0,30.26,East,79,4.2,14.0,42,0.00,,,0.00,VWS V14.01,2013-05-27 00:49:00,
2013-05-26 20:54:00,52.9,31.0,30.26,NNW,333,7.0,14.0,43,0.00,,,0.00,VWS V14.01,2013-05-27 00:54:00,
2013-05-26 20:59:00,52.2,31.0,30.26,WNW,290,5.6,14.0,44,0.00,,,0.00,VWS V14.01,2013-05-27 00:59:00,
2013-05-26 21:00:00,56.5,31.2,30.27,NNW,330,4.2,21.0,38,0.00,,,0.00,VWS V14.01,2013-05-27 01:00:00,
2013-05-26 21:04:00,51.7,31.6,30.26,WNW,293,1.4,14.0,46,0.00,,,0.00,VWS V14.01,2013-05-27 01:04:00,
2013-05-26 21:09:00,51.1,31.6,30.26,NNE,18,2.8,14.0,47,0.00,,,0.00,VWS V14.01,2013-05-27 01:09:00,
2013-05-26 21:14:00,50.8,32.3,30.26,WNW,285,0.0,14.0,49,0.00,,,0.00,VWS V14.01,2013-05-27 01:14:00,
2013-05-26 21:19:00,50.5,32.1,30.26,NW,309,2.8,14.0,49,0.00,,,0.00,VWS V14.01,2013-05-27 01:19:00,
2013-05-26 21:24:00,50.5,31.6,30.26,WNW,283,4.2,14.0,48,0.00,,,0.00,VWS V14.01,2013-05-27 01:24:00,
2013-05-26 21:29:00,50.7,31.7,30.26,West,259,2.8,14.0,48,0.00,,,0.00,VWS V14.01,2013-05-27 01:29:00,
2013-05-26 21:34:00,50.8,32.3,30.26,WNW,283,1.4,14.0,49,0.00,,,0.00,VWS V14.01,2013-05-27 01:34:00,
2013-05-26 21:39:00,50.6,32.2,30.26,NW,321,0.0,14.0,49,0.00,,,0.00,VWS V14.01,2013-05-27 01:39:00,
2013-05-26 21:44:00,50.5,31.6,30.26,WSW,249,1.4,14.0,48,0.00,,,0.00,VWS V14.01,2013-05-27 01:44:00,
2013-05-26 21:49:00,50.1,34.1,30.26,SW,221,1.4,14.0,54,0.00,,,0.00,VWS V14.01,2013-05-27 01:49:00,
2013-05-26 21:54:00,49.4,33.5,30.26,SW,217,1.4,14.0,54,0.00,,,0.00,VWS V14.01,2013-05-27 01:54:00,
2013-05-26 21:59:00,48.8,34.7,30.27,SW,221,0.0,0.0,58,0.00,,,0.00,VWS V14.01,2013-05-27 01:59:00,
2013-05-26 22:00:00,48.8,34.7,30.27,SW,221,0.0,14.0,58,0.00,,,0.00,VWS V14.01,2013-05-27 02:00:00,
2013-05-26 22:04:00,48.1,34.0,30.26,SSW,208,0.0,2.8,58,0.00,,,0.00,VWS V14.01,2013-05-27 02:04:00,
2013-05-26 22:09:00,47.7,32.8,30.26,SW,235,2.8,4.2,56,0.00,,,0.00,VWS V14.01,2013-05-27 02:09:00,
2013-05-26 22:14:00,47.2,33.2,30.27,WSW,245,0.0,4.2,58,0.00,,,0.00,VWS V14.01,2013-05-27 02:14:00,
2013-05-26 22:19:00,46.9,33.8,30.26,SW,231,0.0,4.2,60,0.00,,,0.00,VWS V14.01,2013-05-27 02:19:00,
2013-05-26 22:24:00,46.4,36.0,30.27,SW,217,1.4,4.2,67,0.00,,,0.00,VWS V14.01,2013-05-27 02:24:00,
2013-05-26 22:29:00,45.7,35.4,30.27,SW,232,0.0,4.2,67,0.00,,,0.00,VWS V14.01,2013-05-27 02:29:00,
2013-05-26 22:34:00,45.5,33.7,30.27,WSW,248,0.0,4.2,63,0.00,,,0.00,VWS V14.01,2013-05-27 02:34:00,
2013-05-26 22:39:00,45.3,37.2,30.27,SSW,210,1.4,4.2,73,0.00,,,0.00,VWS V14.01,2013-05-27 02:39:00,
2013-05-26 22:44:00,44.9,35.4,30.27,SSW,210,0.0,4.2,69,0.00,,,0.00,VWS V14.01,2013-05-27 02:44:00,
2013-05-26 22:49:00,44.7,35.5,30.27,SSW,210,0.0,4.2,70,0.00,,,0.00,VWS V14.01,2013-05-27 02:49:00,
2013-05-26 22:54:00,44.4,34.1,30.27,SSW,210,0.0,4.2,67,0.00,,,0.00,VWS V14.01,2013-05-27 02:54:00,
2013-05-26 22:59:00,44.4,35.2,30.27,SSW,210,0.0,4.2,70,0.00,,,0.00,VWS V14.01,2013-05-27 02:59:00,
2013-05-26 23:00:00,48.8,34.7,30.27,SW,221,0.0,14.0,58,0.00,,,0.00,VWS V14.01,2013-05-27 03:00:00,
2013-05-26 23:04:00,44.4,32.6,30.27,SSW,210,0.0,4.2,63,0.00,,,0.00,VWS V14.01,2013-05-27 03:04:00,
2013-05-26 23:09:00,44.5,33.1,30.27,SSW,210,1.4,4.2,64,0.00,,,0.00,VWS V14.01,2013-05-27 03:09:00,
2013-05-26 23:14:00,44.2,35.0,30.27,SSW,210,1.4,4.2,70,0.00,,,0.00,VWS V14.01,2013-05-27 03:14:00,
2013-05-26 23:19:00,43.9,32.5,30.27,SW,226,0.0,4.2,64,0.00,,,0.00,VWS V14.01,2013-05-27 03:19:00,
2013-05-26 23:24:00,44.3,32.1,30.27,SW,226,0.0,4.2,62,0.00,,,0.00,VWS V14.01,2013-05-27 03:24:00,
2013-05-26 23:29:00,44.2,34.7,30.27,SSW,200,1.4,4.2,69,0.00,,,0.00,VWS V14.01,2013-05-27 03:29:00,
2013-05-26 23:34:00,43.4,34.6,30.28,SSW,203,0.0,4.2,71,0.00,,,0.00,VWS V14.01,2013-05-27 03:34:00,
2013-05-26 23:39:00,42.7,34.0,30.28,SW,221,2.8,4.2,71,0.00,,,0.00,VWS V14.01,2013-05-27 03:39:00,
2013-05-26 23:44:00,42.3,33.9,30.28,SW,217,0.0,4.2,72,0.00,,,0.00,VWS V14.01,2013-05-27 03:44:00,
2013-05-26 23:49:00,42.5,32.7,30.28,SW,217,0.0,4.2,68,0.00,,,0.00,VWS V14.01,2013-05-27 03:49:00,
2013-05-26 23:54:00,42.5,33.1,30.28,South,172,1.4,4.2,69,0.00,,,0.00,VWS V14.01,2013-05-27 03:54:00,
2013-05-26 23:59:00,42.4,33.7,30.28,SSW,201,1.4,4.2,71,0.00,,,0.00,VWS V14.01,2013-05-27 03:59:00,